createdAt,value
2022-10-29T00:00:05.001Z,101772.00
2022-10-29T00:02:31.540Z,101765.19
2022-10-29T00:04:58.227Z,101762.19
2022-10-29T00:07:24.709Z,101759.06
2022-10-29T00:09:51.225Z,101757.91
2022-10-29T00:12:17.761Z,101756.22
2022-10-29T00:14:44.271Z,101750.34
2022-10-29T00:17:10.743Z,101758.16
2022-10-29T00:19:37.397Z,101751.13
2022-10-29T00:22:03.884Z,101743.41
2022-10-29T00:24:30.375Z,101752.06
2022-10-29T00:26:56.989Z,101747.88
2022-10-29T00:29:23.511Z,101744.81
2022-10-29T00:31:50.634Z,101749.63
2022-10-29T00:34:17.279Z,101748.56
2022-10-29T00:36:43.866Z,101754.38
2022-10-29T00:39:13.437Z,101756.91
2022-10-29T00:41:39.999Z,101760.94
2022-10-29T00:44:15.597Z,101768.34
2022-10-29T00:46:44.109Z,101781.97
2022-10-29T00:49:11.471Z,101777.53
2022-10-29T00:51:38.594Z,101770.53
2022-10-29T00:54:06.825Z,101770.63
2022-10-29T00:56:35.780Z,101772.19
2022-10-29T01:01:27.586Z,101755.19
2022-10-29T01:03:55.531Z,101751.66
2022-10-29T01:06:23.649Z,101750.28
2022-10-29T01:08:50.238Z,101746.88
2022-10-29T01:11:19.508Z,101736.56
2022-10-29T01:16:31.310Z,101757.50
2022-10-29T01:19:18.077Z,101752.72
2022-10-29T01:21:46.233Z,101752.22
2022-10-29T01:24:21.895Z,101761.69
2022-10-29T01:27:23.801Z,101755.44
2022-10-29T01:29:56.220Z,101752.66
2022-10-29T01:32:46.056Z,101751.44
2022-10-29T01:35:18.768Z,101743.19
2022-10-29T01:38:05.673Z,101740.94
2022-10-29T01:40:34.919Z,101740.88
2022-10-29T01:43:04.299Z,101736.66
2022-10-29T01:45:35.624Z,101740.50
2022-10-29T01:48:11.331Z,101722.91
2022-10-29T01:50:39.564Z,101717.34
2022-10-29T01:53:06.885Z,101714.78
2022-10-29T01:55:37.221Z,101716.09
2022-10-29T01:58:04.639Z,101720.91
2022-10-29T02:00:37.515Z,101717.69
2022-10-29T02:03:24.764Z,101713.78
2022-10-29T02:05:51.247Z,101714.22
2022-10-29T02:08:17.707Z,101718.19
2022-10-29T02:11:01.021Z,101706.94
2022-10-29T02:13:31.457Z,101708.25
2022-10-29T02:15:59.934Z,101703.19
2022-10-29T02:18:26.502Z,101713.19
2022-10-29T02:20:53.027Z,101700.81
2022-10-29T02:23:19.548Z,101709.81
2022-10-29T02:25:46.352Z,101710.97
2022-10-29T02:28:13.301Z,101708.00
2022-10-29T02:30:39.867Z,101711.81
2022-10-29T02:33:06.421Z,101708.84
2022-10-29T02:35:32.913Z,101702.50
2022-10-29T02:37:59.381Z,101706.16
2022-10-29T02:40:25.880Z,101697.84
2022-10-29T02:42:52.462Z,101695.88
2022-10-29T02:45:19.013Z,101688.25
2022-10-29T02:47:45.639Z,101687.09
2022-10-29T02:50:13.486Z,101676.72
2022-10-29T02:52:40.094Z,101681.06
2022-10-29T02:55:06.752Z,101675.19
2022-10-29T02:57:33.252Z,101674.66
2022-10-29T02:59:59.856Z,101680.97
2022-10-29T03:02:26.505Z,101664.41
2022-10-29T03:04:53.044Z,101683.41
2022-10-29T03:07:19.611Z,101675.25
2022-10-29T03:09:46.167Z,101678.75
2022-10-29T03:12:12.661Z,101675.94
2022-10-29T03:14:39.457Z,101687.00
2022-10-29T03:17:06.012Z,101673.19
2022-10-29T03:19:32.483Z,101674.03
2022-10-29T03:21:59.181Z,101674.59
2022-10-29T03:24:25.740Z,101670.22
2022-10-29T03:26:52.246Z,101662.06
2022-10-29T03:29:18.853Z,101665.88
2022-10-29T03:31:45.354Z,101667.31
2022-10-29T03:34:11.862Z,101666.78
2022-10-29T03:36:38.559Z,101675.34
2022-10-29T03:39:05.077Z,101681.22
2022-10-29T03:41:31.595Z,101678.41
2022-10-29T03:43:58.204Z,101678.78
2022-10-29T03:46:24.696Z,101683.56
2022-10-29T03:48:51.192Z,101679.44
2022-10-29T03:51:17.788Z,101662.72
2022-10-29T03:53:44.316Z,101652.47
2022-10-29T03:56:10.803Z,101651.38
2022-10-29T03:58:37.376Z,101658.00
2022-10-29T04:01:05.147Z,101654.66
2022-10-29T04:03:32.558Z,101655.78
2022-10-29T04:05:59.884Z,101649.06
2022-10-29T04:08:26.583Z,101638.84
2022-10-29T04:10:53.833Z,101635.91
2022-10-29T04:13:20.720Z,101645.06
2022-10-29T04:15:47.345Z,101650.84
2022-10-29T04:18:14.026Z,101654.81
2022-10-29T04:20:59.778Z,101655.34
2022-10-29T04:29:00.528Z,101679.56
2022-10-29T04:31:27.010Z,101685.75
2022-10-29T04:33:54.178Z,101689.13
2022-10-29T04:36:20.669Z,101692.34
2022-10-29T04:38:47.220Z,101692.72
2022-10-29T04:41:13.874Z,101690.38
2022-10-29T04:43:40.388Z,101688.09
2022-10-29T04:46:06.861Z,101689.78
2022-10-29T04:48:33.727Z,101686.25
2022-10-29T04:51:00.317Z,101682.06
2022-10-29T04:53:27.126Z,101680.22
2022-10-29T04:55:58.842Z,101685.41
2022-10-29T04:58:25.318Z,101702.13
2022-10-29T05:00:52.037Z,101697.78
2022-10-29T05:03:18.608Z,101693.28
2022-10-29T05:05:45.222Z,101684.28
2022-10-29T05:08:12.139Z,101685.56
2022-10-29T05:10:39.558Z,101682.91
2022-10-29T05:13:08.048Z,101675.03
2022-10-29T05:15:34.837Z,101672.66
2022-10-29T05:18:01.845Z,101669.41
2022-10-29T05:20:28.710Z,101665.19
2022-10-29T05:22:59.106Z,101660.16
2022-10-29T05:25:25.708Z,101662.28
2022-10-29T05:27:59.205Z,101658.63
2022-10-29T05:30:25.723Z,101655.25
2022-10-29T05:32:52.200Z,101654.56
2022-10-29T05:35:18.780Z,101664.84
2022-10-29T05:37:50.790Z,101658.38
2022-10-29T05:40:17.303Z,101657.22
2022-10-29T05:42:47.323Z,101646.56
2022-10-29T05:45:14.313Z,101644.19
2022-10-29T05:47:40.883Z,101648.00
2022-10-29T05:50:07.620Z,101646.44
2022-10-29T05:52:34.193Z,101652.94
2022-10-29T05:55:00.723Z,101645.34
2022-10-29T05:57:27.806Z,101655.16
2022-10-29T05:59:54.690Z,101642.25
2022-10-29T06:02:21.226Z,101641.44
2022-10-29T06:04:47.833Z,101653.25
2022-10-29T06:07:14.561Z,101656.06
2022-10-29T06:09:41.027Z,101637.53
2022-10-29T06:12:07.616Z,101638.34
2022-10-29T06:14:34.197Z,101628.81
2022-10-29T06:17:01.452Z,101635.00
2022-10-29T06:19:27.998Z,101640.34
2022-10-29T06:21:57.848Z,101652.84
2022-10-29T06:24:26.861Z,101657.03
2022-10-29T06:26:54.436Z,101665.31
2022-10-29T06:29:20.945Z,101671.19
2022-10-29T06:31:48.569Z,101664.72
2022-10-29T06:34:15.308Z,101677.34
2022-10-29T06:36:41.786Z,101662.16
2022-10-29T06:39:08.320Z,101676.91
2022-10-29T06:41:34.852Z,101678.28
2022-10-29T06:44:01.366Z,101682.66
2022-10-29T06:46:27.839Z,101671.56
2022-10-29T06:50:33.472Z,101659.22
2022-10-29T06:53:01.547Z,101655.16
2022-10-29T06:55:28.481Z,101654.16
2022-10-29T06:58:02.351Z,101643.63
2022-10-29T07:00:29.266Z,101647.16
2022-10-29T07:02:57.268Z,101646.84
2022-10-29T07:05:24.541Z,101645.84
2022-10-29T07:07:54.855Z,101654.41
2022-10-29T07:10:21.584Z,101655.66
2022-10-29T07:12:48.225Z,101657.75
2022-10-29T07:15:14.718Z,101657.34
2022-10-29T07:17:41.338Z,101678.94
2022-10-29T07:20:08.552Z,101678.34
2022-10-29T07:22:35.669Z,101667.09
2022-10-29T07:25:02.186Z,101672.66
2022-10-29T07:27:28.852Z,101663.06
2022-10-29T07:29:55.426Z,101663.59
2022-10-29T07:32:22.904Z,101655.16
2022-10-29T07:34:49.449Z,101658.88
2022-10-29T07:37:15.963Z,101653.94
2022-10-29T07:39:42.625Z,101652.47
2022-10-29T07:42:09.235Z,101654.72
2022-10-29T07:44:35.774Z,101655.94
2022-10-29T07:47:03.196Z,101645.31
2022-10-29T07:49:29.847Z,101647.50
2022-10-29T07:51:56.364Z,101645.41
2022-10-29T07:54:22.918Z,101654.47
2022-10-29T07:56:51.516Z,101643.84
2022-10-29T07:59:19.270Z,101646.19
2022-10-29T08:01:46.130Z,101655.97
2022-10-29T08:04:13.678Z,101654.34
2022-10-29T08:06:40.206Z,101657.28
2022-10-29T08:09:06.747Z,101657.50
2022-10-29T08:11:33.507Z,101654.34
2022-10-29T08:14:00.398Z,101651.06
2022-10-29T08:16:26.910Z,101656.47
2022-10-29T08:18:53.483Z,101661.34
2022-10-29T08:21:20.023Z,101666.22
2022-10-29T08:23:47.027Z,101665.41
2022-10-29T08:26:13.711Z,101663.09
2022-10-29T08:28:40.218Z,101665.69
2022-10-29T08:31:06.675Z,101655.69
2022-10-29T08:33:33.225Z,101635.91
2022-10-29T08:35:59.758Z,101638.19
2022-10-29T08:38:26.285Z,101634.06
2022-10-29T08:40:52.870Z,101632.75
2022-10-29T08:43:19.346Z,101628.09
2022-10-29T08:45:47.207Z,101637.66
2022-10-29T08:48:32.645Z,101622.25
2022-10-29T08:51:20.841Z,101626.09
2022-10-29T08:54:03.988Z,101625.28
2022-10-29T08:56:37.609Z,101621.91
2022-10-29T08:59:12.494Z,101624.09
2022-10-29T09:01:39.504Z,101619.56
2022-10-29T09:04:20.762Z,101618.19
2022-10-29T09:06:53.420Z,101615.81
2022-10-29T09:09:39.269Z,101600.38
2022-10-29T09:12:24.412Z,101605.69
2022-10-29T09:15:15.028Z,101598.19
2022-10-29T09:17:54.499Z,101599.50
2022-10-29T09:20:21.410Z,101602.13
2022-10-29T09:23:02.438Z,101616.56
2022-10-29T09:25:32.096Z,101605.81
2022-10-29T09:28:21.344Z,101599.44
2022-10-29T09:30:57.470Z,101593.19
2022-10-29T09:33:24.935Z,101583.69
2022-10-29T09:35:55.493Z,101580.97
2022-10-29T09:38:41.503Z,101571.84
2022-10-29T09:41:12.271Z,101572.19
2022-10-29T09:43:39.330Z,101554.94
2022-10-29T09:46:24.755Z,101543.28
2022-10-29T09:49:09.458Z,101541.41
2022-10-29T09:51:39.130Z,101526.56
2022-10-29T09:54:05.859Z,101512.56
2022-10-29T09:56:32.401Z,101498.09
2022-10-29T09:59:07.662Z,101506.84
2022-10-29T10:01:34.290Z,101511.88
2022-10-29T10:04:06.330Z,101509.78
2022-10-29T10:06:52.931Z,101515.22
2022-10-29T10:09:19.398Z,101506.44
2022-10-29T10:11:49.744Z,101506.63
2022-10-29T10:14:24.241Z,101511.41
2022-10-29T10:16:58.157Z,101522.81
2022-10-29T10:19:26.239Z,101521.72
2022-10-29T10:21:57.492Z,101517.97
2022-10-29T10:24:31.801Z,101515.78
2022-10-29T10:26:58.329Z,101508.72
2022-10-29T10:29:25.598Z,101510.38
2022-10-29T10:31:57.932Z,101508.91
2022-10-29T10:34:25.709Z,101503.91
2022-10-29T10:36:53.956Z,101493.31
2022-10-29T10:39:31.820Z,101498.72
2022-10-29T10:42:00.528Z,101498.91
2022-10-29T10:44:27.791Z,101505.16
2022-10-29T10:46:55.682Z,101488.31
2022-10-29T10:49:31.142Z,101480.00
2022-10-29T10:51:58.814Z,101480.31
2022-10-29T10:54:37.179Z,101478.03
2022-10-29T10:57:12.835Z,101473.19
2022-10-29T10:59:57.714Z,101466.53
2022-10-29T11:02:42.489Z,101465.78
2022-10-29T11:05:16.530Z,101465.63
2022-10-29T11:07:47.134Z,101452.31
2022-10-29T11:10:14.985Z,101465.19
2022-10-29T11:12:47.594Z,101457.69
2022-10-29T11:15:17.183Z,101459.78
2022-10-29T11:17:51.346Z,101452.31
2022-10-29T11:20:20.383Z,101434.78
2022-10-29T11:22:56.664Z,101426.00
2022-10-29T11:25:35.233Z,101417.81
2022-10-29T11:28:04.489Z,101416.00
2022-10-29T11:30:34.388Z,101416.81
2022-10-29T11:33:01.415Z,101422.78
2022-10-29T11:36:00.540Z,101422.09
2022-10-29T11:38:39.776Z,101418.47
2022-10-29T11:41:18.339Z,101421.66
2022-10-29T11:43:46.836Z,101425.72
2022-10-29T11:46:16.204Z,101424.72
2022-10-29T11:48:45.674Z,101426.22
2022-10-29T11:51:44.853Z,101422.53
2022-10-29T11:54:20.257Z,101427.75
2022-10-29T11:56:52.598Z,101426.91
2022-10-29T11:59:19.075Z,101426.19
2022-10-29T12:01:48.686Z,101424.31
2022-10-29T12:04:24.686Z,101421.66
2022-10-29T12:07:09.977Z,101421.28
2022-10-29T12:09:36.541Z,101414.28
2022-10-29T12:12:02.997Z,101414.41
2022-10-29T12:14:37.385Z,101403.75
2022-10-29T12:17:13.352Z,101404.94
2022-10-29T12:20:01.254Z,101406.53
2022-10-29T12:22:33.972Z,101398.47
2022-10-29T12:25:19.496Z,101385.91
2022-10-29T12:27:55.303Z,101389.94
2022-10-29T12:30:23.033Z,101395.47
2022-10-29T12:32:49.511Z,101391.00
2022-10-29T12:35:20.123Z,101378.84
2022-10-29T12:38:13.118Z,101386.78
2022-10-29T12:40:41.791Z,101383.03
2022-10-29T12:43:13.635Z,101393.13
2022-10-29T12:46:14.428Z,101390.84
2022-10-29T12:48:51.968Z,101388.53
2022-10-29T12:51:30.514Z,101381.91
2022-10-29T12:54:15.628Z,101379.72
2022-10-29T12:56:47.919Z,101382.78
2022-10-29T12:59:32.158Z,101375.03
2022-10-29T13:02:21.975Z,101385.53
2022-10-29T13:05:09.967Z,101379.84
2022-10-29T13:07:37.626Z,101376.75
2022-10-29T13:10:22.832Z,101367.59
2022-10-29T13:12:58.396Z,101364.63
2022-10-29T13:15:30.180Z,101351.06
2022-10-29T13:17:58.431Z,101344.34
2022-10-29T13:20:45.560Z,101345.97
2022-10-29T13:23:24.161Z,101341.56
2022-10-29T13:25:52.062Z,101344.03
2022-10-29T13:28:18.507Z,101333.22
2022-10-29T13:30:46.101Z,101333.88
2022-10-29T13:33:21.816Z,101333.19
2022-10-29T13:35:57.472Z,101327.22
2022-10-29T13:38:57.697Z,101326.41
2022-10-29T13:41:29.597Z,101321.41
2022-10-29T13:44:04.716Z,101329.53
2022-10-29T13:46:31.317Z,101324.69
2022-10-29T13:49:02.706Z,101319.22
2022-10-29T13:51:33.875Z,101321.84
2022-10-29T13:54:07.280Z,101316.53
2022-10-29T13:56:59.483Z,101313.97
2022-10-29T13:59:38.403Z,101312.63
2022-10-29T14:02:13.834Z,101307.94
2022-10-29T14:04:46.969Z,101308.25
2022-10-29T14:07:17.369Z,101306.91
2022-10-29T14:09:46.347Z,101298.31
2022-10-29T14:12:17.388Z,101296.19
2022-10-29T14:14:43.851Z,101298.38
2022-10-29T14:17:11.555Z,101297.56
2022-10-29T14:19:38.196Z,101296.47
2022-10-29T14:22:24.024Z,101296.78
2022-10-29T14:24:51.642Z,101295.97
2022-10-29T14:27:18.236Z,101299.00
2022-10-29T14:29:45.060Z,101300.84
2022-10-29T14:32:19.229Z,101303.66
2022-10-29T14:34:49.261Z,101301.47
2022-10-29T14:37:33.369Z,101305.84
2022-10-29T14:40:07.435Z,101304.34
2022-10-29T14:42:35.808Z,101300.78
2022-10-29T14:45:09.493Z,101299.47
2022-10-29T14:47:36.851Z,101301.56
2022-10-29T14:50:05.675Z,101300.66
2022-10-29T14:52:38.505Z,101293.59
2022-10-29T14:55:25.174Z,101294.03
2022-10-29T14:58:12.082Z,101295.63
2022-10-29T15:00:40.022Z,101296.00
2022-10-29T15:03:07.327Z,101282.53
2022-10-29T15:05:36.234Z,101293.59
2022-10-29T15:08:06.911Z,101292.72
2022-10-29T15:10:43.653Z,101282.22
2022-10-29T15:13:28.303Z,101298.03
2022-10-29T15:16:06.718Z,101287.81
2022-10-29T15:18:33.768Z,101287.16
2022-10-29T15:21:00.621Z,101289.50
2022-10-29T15:23:27.476Z,101278.59
2022-10-29T15:26:04.451Z,101278.56
2022-10-29T15:28:36.946Z,101278.94
2022-10-29T15:33:45.377Z,101277.88
2022-10-29T15:36:21.043Z,101271.84
2022-10-29T15:38:52.161Z,101271.00
2022-10-29T15:41:39.903Z,101277.16
2022-10-29T15:44:26.389Z,101277.91
2022-10-29T15:46:58.894Z,101274.03
2022-10-29T15:49:31.329Z,101272.00
2022-10-29T15:52:00.205Z,101267.03
2022-10-29T15:54:27.642Z,101264.16
2022-10-29T15:56:54.116Z,101261.50
2022-10-29T15:59:23.412Z,101254.63
2022-10-29T16:01:50.089Z,101263.16
2022-10-29T16:04:16.753Z,101261.31
2022-10-29T16:06:43.345Z,101262.97
2022-10-29T16:09:16.347Z,101261.31
2022-10-29T16:11:42.880Z,101268.59
2022-10-29T16:14:10.117Z,101270.22
2022-10-29T16:16:37.492Z,101264.59
2022-10-29T16:19:04.013Z,101272.41
2022-10-29T16:21:30.580Z,101268.66
2022-10-29T16:23:57.199Z,101267.38
2022-10-29T16:26:24.810Z,101271.72
2022-10-29T16:28:54.577Z,101278.56
2022-10-29T16:31:25.085Z,101278.50
2022-10-29T16:33:52.932Z,101275.16
2022-10-29T16:36:19.635Z,101278.03
2022-10-29T16:38:46.241Z,101284.19
2022-10-29T16:41:14.014Z,101283.75
2022-10-29T16:43:40.604Z,101288.25
2022-10-29T16:46:07.403Z,101290.03
2022-10-29T16:48:34.055Z,101293.13
2022-10-29T16:51:00.993Z,101285.84
2022-10-29T16:53:27.812Z,101277.31
2022-10-29T16:55:54.310Z,101287.91
2022-10-29T16:58:20.856Z,101277.09
2022-10-29T17:00:47.412Z,101283.50
2022-10-29T17:03:14.716Z,101272.25
2022-10-29T17:05:42.973Z,101272.91
2022-10-29T17:08:09.662Z,101281.00
2022-10-29T17:10:36.562Z,101275.16
2022-10-29T17:13:03.089Z,101272.66
2022-10-29T17:15:29.874Z,101272.66
2022-10-29T17:17:56.776Z,101260.63
2022-10-29T17:20:23.571Z,101265.38
2022-10-29T17:22:50.195Z,101282.38
2022-10-29T17:25:16.736Z,101278.41
2022-10-29T17:27:43.387Z,101273.81
2022-10-29T17:30:10.710Z,101274.75
2022-10-29T17:32:37.524Z,101270.59
2022-10-29T17:35:04.183Z,101277.59
2022-10-29T17:37:30.839Z,101270.94
2022-10-29T17:40:00.342Z,101273.63
2022-10-29T17:42:30.624Z,101270.88
2022-10-29T17:44:57.173Z,101271.84
2022-10-29T17:47:23.706Z,101271.19
2022-10-29T17:49:50.195Z,101275.94
2022-10-29T17:52:17.579Z,101266.38
2022-10-29T17:54:44.086Z,101276.69
2022-10-29T17:57:10.625Z,101273.09
2022-10-29T17:59:37.234Z,101271.81
2022-10-29T18:02:03.824Z,101267.84
2022-10-29T18:04:30.440Z,101276.94
2022-10-29T18:06:57.020Z,101282.72
2022-10-29T18:09:23.571Z,101276.69
2022-10-29T18:11:50.498Z,101272.31
2022-10-29T18:14:17.178Z,101267.97
2022-10-29T18:16:43.713Z,101271.84
2022-10-29T18:19:10.207Z,101273.91
2022-10-29T18:21:36.882Z,101280.13
2022-10-29T18:24:03.475Z,101281.13
2022-10-29T18:26:32.575Z,101280.13
2022-10-29T18:29:00.337Z,101281.53
2022-10-29T18:31:28.058Z,101282.34
2022-10-29T18:33:54.816Z,101274.28
2022-10-29T18:36:21.489Z,101271.13
2022-10-29T18:38:55.382Z,101271.13
2022-10-29T18:41:22.312Z,101268.44
2022-10-29T18:43:49.107Z,101269.47
2022-10-29T18:46:16.377Z,101263.44
2022-10-29T18:48:45.945Z,101267.16
2022-10-29T18:51:14.246Z,101257.81
2022-10-29T18:53:40.756Z,101260.06
2022-10-29T18:56:15.207Z,101255.66
2022-10-29T18:58:41.789Z,101254.00
2022-10-29T19:01:09.604Z,101255.41
2022-10-29T19:03:36.375Z,101246.88
2022-10-29T19:06:04.290Z,101253.28
2022-10-29T19:08:31.261Z,101261.09
2022-10-29T19:11:01.248Z,101255.28
2022-10-29T19:13:27.718Z,101253.78
2022-10-29T19:15:54.233Z,101258.50
2022-10-29T19:18:20.959Z,101253.50
2022-10-29T19:20:47.648Z,101246.44
2022-10-29T19:23:14.174Z,101248.31
2022-10-29T19:25:41.342Z,101249.78
2022-10-29T19:28:07.922Z,101255.16
2022-10-29T19:30:34.517Z,101256.19
2022-10-29T19:33:05.092Z,101254.72
2022-10-29T19:35:34.312Z,101251.94
2022-10-29T19:38:01.030Z,101243.81
2022-10-29T19:40:27.593Z,101250.34
2022-10-29T19:42:54.249Z,101244.97
2022-10-29T19:45:22.100Z,101241.63
2022-10-29T19:47:48.624Z,101240.78
2022-10-29T19:50:15.314Z,101239.31
2022-10-29T19:52:42.036Z,101236.63
2022-10-29T19:55:11.317Z,101229.56
2022-10-29T19:57:37.894Z,101227.91
2022-10-29T20:00:04.657Z,101223.75
2022-10-29T20:02:31.303Z,101223.94
2022-10-29T20:04:57.942Z,101212.34
2022-10-29T20:07:24.528Z,101213.16
2022-10-29T20:09:51.009Z,101208.81
2022-10-29T20:12:17.542Z,101213.16
2022-10-29T20:14:44.166Z,101207.78
2022-10-29T20:17:10.724Z,101195.19
2022-10-29T20:19:37.234Z,101196.41
2022-10-29T20:22:03.771Z,101207.97
2022-10-29T20:24:30.239Z,101207.16
2022-10-29T20:26:56.733Z,101216.06
2022-10-29T20:29:23.377Z,101199.72
2022-10-29T20:31:49.943Z,101209.66
2022-10-29T20:34:16.454Z,101214.19
2022-10-29T20:36:46.905Z,101233.19
2022-10-29T20:39:16.817Z,101242.84
2022-10-29T20:41:43.746Z,101240.16
2022-10-29T20:44:10.344Z,101237.84
2022-10-29T20:46:40.883Z,101234.03
2022-10-29T20:49:10.107Z,101236.25
2022-10-29T20:51:36.673Z,101226.06
2022-10-29T20:54:03.183Z,101220.03
2022-10-29T20:56:29.703Z,101218.19
2022-10-29T20:58:56.410Z,101207.81
2022-10-29T21:01:24.450Z,101215.03
2022-10-29T21:03:51.457Z,101211.16
2022-10-29T21:06:18.776Z,101214.28
2022-10-29T21:08:46.449Z,101226.53
2022-10-29T21:11:14.077Z,101222.19
2022-10-29T21:13:40.632Z,101220.13
2022-10-29T21:16:27.566Z,101231.91
2022-10-29T21:18:55.548Z,101236.44
2022-10-29T21:21:22.806Z,101243.03
2022-10-29T21:23:49.378Z,101249.44
2022-10-29T21:26:17.891Z,101252.28
2022-10-29T21:28:44.866Z,101247.94
2022-10-29T21:31:11.756Z,101251.84
2022-10-29T21:33:38.498Z,101259.25
2022-10-29T21:36:05.161Z,101263.09
2022-10-29T21:38:33.651Z,101263.84
2022-10-29T21:41:03.604Z,101256.34
2022-10-29T21:43:30.201Z,101251.34
2022-10-29T21:45:56.727Z,101253.00
2022-10-29T21:48:25.787Z,101248.66
2022-10-29T21:50:59.026Z,101255.06
2022-10-29T21:53:25.592Z,101248.66
2022-10-29T21:55:58.499Z,101254.03
2022-10-29T21:58:25.420Z,101251.53
2022-10-29T22:00:52.010Z,101246.16
2022-10-29T22:03:18.635Z,101252.53
2022-10-29T22:05:45.225Z,101242.81
2022-10-29T22:08:11.789Z,101247.53
2022-10-29T22:10:38.420Z,101246.72
2022-10-29T22:13:05.644Z,101241.16
2022-10-29T22:15:32.710Z,101242.50
2022-10-29T22:17:59.314Z,101237.31
2022-10-29T22:20:25.798Z,101236.66
2022-10-29T22:22:52.269Z,101235.38
2022-10-29T22:25:18.979Z,101245.47
2022-10-29T22:27:45.429Z,101240.28
2022-10-29T22:30:12.162Z,101237.78
2022-10-29T22:32:38.711Z,101243.16
2022-10-29T22:35:05.358Z,101246.84
2022-10-29T22:37:31.901Z,101240.81
2022-10-29T22:39:58.499Z,101244.72
2022-10-29T22:42:25.029Z,101246.38
2022-10-29T22:44:51.511Z,101247.75
2022-10-29T22:47:18.179Z,101254.16
2022-10-29T22:49:44.666Z,101250.78
2022-10-29T22:52:11.217Z,101248.47
2022-10-29T22:54:37.756Z,101253.00
2022-10-29T22:57:04.294Z,101246.63
2022-10-29T22:59:30.794Z,101239.56
2022-10-29T23:01:57.532Z,101243.94
2022-10-29T23:04:24.392Z,101243.09
2022-10-29T23:06:50.877Z,101240.59
2022-10-29T23:09:17.505Z,101243.28
2022-10-29T23:11:44.027Z,101243.63
2022-10-29T23:14:10.603Z,101240.47
2022-10-29T23:16:37.168Z,101243.69
2022-10-29T23:19:04.689Z,101249.75
2022-10-29T23:21:31.698Z,101247.78
2022-10-29T23:23:58.420Z,101249.16
2022-10-29T23:26:25.815Z,101237.31
2022-10-29T23:28:52.396Z,101235.81
2022-10-29T23:31:20.276Z,101243.22
2022-10-29T23:33:48.126Z,101239.84
2022-10-29T23:36:14.958Z,101241.69
2022-10-29T23:38:41.786Z,101238.88
2022-10-29T23:41:08.329Z,101241.19
2022-10-29T23:43:34.834Z,101247.38
2022-10-29T23:46:01.588Z,101244.72
2022-10-29T23:48:28.162Z,101246.84
2022-10-29T23:50:56.578Z,101241.47
2022-10-29T23:53:24.094Z,101244.16
2022-10-29T23:55:50.638Z,101244.16
2022-10-29T23:58:17.435Z,101244.53
